sensor_id;sensor_type;location;lat;lon;timestamp;P1;durP1;ratioP1;P2;durP2;ratioP2
14907;SDS011;7545;52.092;7.006;2023-05-07T00:01:56;8.55;;;7.75;;
14907;SDS011;7545;52.092;7.006;2023-05-07T00:04:21;10.27;;;8.27;;
14907;SDS011;7545;52.092;7.006;2023-05-07T00:06:47;11.68;;;10.00;;
14907;SDS011;7545;52.092;7.006;2023-05-07T00:09:13;9.68;;;8.77;;
14907;SDS011;7545;52.092;7.006;2023-05-07T00:11:39;9.57;;;8.32;;
14907;SDS011;7545;52.092;7.006;2023-05-07T00:14:05;8.70;;;7.90;;
14907;SDS011;7545;52.092;7.006;2023-05-07T00:16:31;7.90;;;7.20;;
14907;SDS011;7545;52.092;7.006;2023-05-07T00:18:56;8.00;;;7.20;;
14907;SDS011;7545;52.092;7.006;2023-05-07T00:21:22;9.10;;;8.25;;
14907;SDS011;7545;52.092;7.006;2023-05-07T00:23:51;8.38;;;7.50;;
14907;SDS011;7545;52.092;7.006;2023-05-07T00:26:17;9.20;;;8.30;;
14907;SDS011;7545;52.092;7.006;2023-05-07T00:28:43;10.10;;;7.70;;
14907;SDS011;7545;52.092;7.006;2023-05-07T00:31:08;9.30;;;7.60;;
14907;SDS011;7545;52.092;7.006;2023-05-07T00:33:35;14.40;;;8.20;;
14907;SDS011;7545;52.092;7.006;2023-05-07T00:36:00;9.05;;;8.25;;
14907;SDS011;7545;52.092;7.006;2023-05-07T00:38:26;9.85;;;8.95;;
14907;SDS011;7545;52.092;7.006;2023-05-07T00:40:52;9.32;;;8.43;;
14907;SDS011;7545;52.092;7.006;2023-05-07T00:43:18;8.63;;;7.82;;
14907;SDS011;7545;52.092;7.006;2023-05-07T00:45:43;8.70;;;7.90;;
14907;SDS011;7545;52.092;7.006;2023-05-07T00:48:09;9.38;;;8.48;;
14907;SDS011;7545;52.092;7.006;2023-05-07T00:50:35;10.15;;;9.20;;
14907;SDS011;7545;52.092;7.006;2023-05-07T00:53:00;10.50;;;9.50;;
14907;SDS011;7545;52.092;7.006;2023-05-07T00:55:26;10.95;;;9.13;;
14907;SDS011;7545;52.092;7.006;2023-05-07T00:57:52;10.55;;;9.55;;
14907;SDS011;7545;52.092;7.006;2023-05-07T01:00:18;10.73;;;9.63;;
14907;SDS011;7545;52.092;7.006;2023-05-07T01:02:44;10.65;;;9.25;;
14907;SDS011;7545;52.092;7.006;2023-05-07T01:05:12;11.00;;;9.90;;
14907;SDS011;7545;52.092;7.006;2023-05-07T01:07:40;10.02;;;9.13;;
14907;SDS011;7545;52.092;7.006;2023-05-07T01:10:07;11.85;;;9.57;;
14907;SDS011;7545;52.092;7.006;2023-05-07T01:12:34;10.65;;;9.65;;
14907;SDS011;7545;52.092;7.006;2023-05-07T01:15:02;11.70;;;10.60;;
14907;SDS011;7545;52.092;7.006;2023-05-07T01:17:33;11.20;;;10.20;;
14907;SDS011;7545;52.092;7.006;2023-05-07T01:19:59;11.88;;;10.77;;
14907;SDS011;7545;52.092;7.006;2023-05-07T01:22:32;12.30;;;11.10;;
14907;SDS011;7545;52.092;7.006;2023-05-07T01:24:59;11.27;;;10.18;;
14907;SDS011;7545;52.092;7.006;2023-05-07T01:27:26;12.20;;;10.93;;
14907;SDS011;7545;52.092;7.006;2023-05-07T01:29:52;13.13;;;11.27;;
14907;SDS011;7545;52.092;7.006;2023-05-07T01:32:27;12.73;;;11.43;;
14907;SDS011;7545;52.092;7.006;2023-05-07T01:34:55;12.32;;;10.88;;
14907;SDS011;7545;52.092;7.006;2023-05-07T01:37:23;11.27;;;10.20;;
14907;SDS011;7545;52.092;7.006;2023-05-07T01:39:50;11.13;;;10.07;;
14907;SDS011;7545;52.092;7.006;2023-05-07T01:42:17;11.20;;;10.15;;
14907;SDS011;7545;52.092;7.006;2023-05-07T01:44:43;11.90;;;10.73;;
14907;SDS011;7545;52.092;7.006;2023-05-07T01:47:08;13.60;;;10.73;;
14907;SDS011;7545;52.092;7.006;2023-05-07T01:49:34;11.75;;;10.55;;
14907;SDS011;7545;52.092;7.006;2023-05-07T01:52:00;11.60;;;10.40;;
14907;SDS011;7545;52.092;7.006;2023-05-07T01:54:26;11.18;;;10.10;;
14907;SDS011;7545;52.092;7.006;2023-05-07T01:56:52;11.82;;;10.05;;
14907;SDS011;7545;52.092;7.006;2023-05-07T01:59:18;15.25;;;10.85;;
14907;SDS011;7545;52.092;7.006;2023-05-07T02:01:44;12.65;;;10.48;;
14907;SDS011;7545;52.092;7.006;2023-05-07T02:04:10;10.55;;;9.57;;
14907;SDS011;7545;52.092;7.006;2023-05-07T02:06:35;10.75;;;9.68;;
14907;SDS011;7545;52.092;7.006;2023-05-07T02:09:01;11.23;;;10.10;;
14907;SDS011;7545;52.092;7.006;2023-05-07T02:11:26;10.27;;;9.18;;
14907;SDS011;7545;52.092;7.006;2023-05-07T02:13:52;11.27;;;9.93;;
14907;SDS011;7545;52.092;7.006;2023-05-07T02:16:18;12.60;;;11.15;;
14907;SDS011;7545;52.092;7.006;2023-05-07T02:18:44;10.60;;;9.50;;
14907;SDS011;7545;52.092;7.006;2023-05-07T02:21:10;10.95;;;10.02;;
14907;SDS011;7545;52.092;7.006;2023-05-07T02:23:35;11.35;;;10.25;;
14907;SDS011;7545;52.092;7.006;2023-05-07T02:26:01;12.68;;;9.77;;
14907;SDS011;7545;52.092;7.006;2023-05-07T02:28:27;12.75;;;10.38;;
14907;SDS011;7545;52.092;7.006;2023-05-07T02:30:52;12.27;;;10.40;;
14907;SDS011;7545;52.092;7.006;2023-05-07T02:33:18;10.30;;;9.23;;
14907;SDS011;7545;52.092;7.006;2023-05-07T02:35:43;11.80;;;10.27;;
14907;SDS011;7545;52.092;7.006;2023-05-07T02:38:09;12.23;;;10.00;;
14907;SDS011;7545;52.092;7.006;2023-05-07T02:40:36;11.52;;;10.35;;
14907;SDS011;7545;52.092;7.006;2023-05-07T02:43:04;10.55;;;9.13;;
14907;SDS011;7545;52.092;7.006;2023-05-07T02:45:30;10.63;;;9.50;;
14907;SDS011;7545;52.092;7.006;2023-05-07T02:47:57;13.38;;;9.88;;
14907;SDS011;7545;52.092;7.006;2023-05-07T02:50:23;10.13;;;9.07;;
14907;SDS011;7545;52.092;7.006;2023-05-07T02:52:49;11.07;;;9.98;;
14907;SDS011;7545;52.092;7.006;2023-05-07T02:55:15;10.82;;;9.02;;
14907;SDS011;7545;52.092;7.006;2023-05-07T02:57:40;10.65;;;9.35;;
14907;SDS011;7545;52.092;7.006;2023-05-07T03:00:10;10.27;;;9.18;;
14907;SDS011;7545;52.092;7.006;2023-05-07T03:02:36;12.20;;;10.20;;
14907;SDS011;7545;52.092;7.006;2023-05-07T03:05:02;11.18;;;9.13;;
14907;SDS011;7545;52.092;7.006;2023-05-07T03:07:28;10.10;;;8.65;;
14907;SDS011;7545;52.092;7.006;2023-05-07T03:09:54;10.82;;;9.23;;
14907;SDS011;7545;52.092;7.006;2023-05-07T03:12:19;13.32;;;8.80;;
14907;SDS011;7545;52.092;7.006;2023-05-07T03:14:45;11.48;;;9.10;;
14907;SDS011;7545;52.092;7.006;2023-05-07T03:17:11;11.68;;;10.00;;
14907;SDS011;7545;52.092;7.006;2023-05-07T03:19:36;13.85;;;9.75;;
14907;SDS011;7545;52.092;7.006;2023-05-07T03:22:02;13.02;;;9.68;;
14907;SDS011;7545;52.092;7.006;2023-05-07T03:24:28;15.13;;;10.73;;
14907;SDS011;7545;52.092;7.006;2023-05-07T03:26:53;12.85;;;10.20;;
14907;SDS011;7545;52.092;7.006;2023-05-07T03:29:19;12.98;;;10.27;;
14907;SDS011;7545;52.092;7.006;2023-05-07T03:31:44;14.50;;;10.27;;
14907;SDS011;7545;52.092;7.006;2023-05-07T03:34:10;13.88;;;9.80;;
14907;SDS011;7545;52.092;7.006;2023-05-07T03:36:36;12.40;;;10.27;;
14907;SDS011;7545;52.092;7.006;2023-05-07T03:39:01;12.73;;;11.38;;
14907;SDS011;7545;52.092;7.006;2023-05-07T03:41:27;18.38;;;11.68;;
14907;SDS011;7545;52.092;7.006;2023-05-07T03:43:54;15.02;;;11.35;;
14907;SDS011;7545;52.092;7.006;2023-05-07T03:46:20;13.93;;;11.00;;
14907;SDS011;7545;52.092;7.006;2023-05-07T03:48:45;14.45;;;10.85;;
14907;SDS011;7545;52.092;7.006;2023-05-07T03:51:11;18.80;;;10.68;;
14907;SDS011;7545;52.092;7.006;2023-05-07T03:53:36;14.98;;;10.90;;
14907;SDS011;7545;52.092;7.006;2023-05-07T03:56:02;14.95;;;11.00;;
14907;SDS011;7545;52.092;7.006;2023-05-07T03:58:28;18.15;;;11.18;;
14907;SDS011;7545;52.092;7.006;2023-05-07T04:00:54;14.45;;;10.85;;
14907;SDS011;7545;52.092;7.006;2023-05-07T04:03:19;14.43;;;10.93;;
14907;SDS011;7545;52.092;7.006;2023-05-07T04:05:45;14.05;;;11.02;;
14907;SDS011;7545;52.092;7.006;2023-05-07T04:08:10;16.02;;;10.85;;
14907;SDS011;7545;52.092;7.006;2023-05-07T04:10:36;13.23;;;11.32;;
14907;SDS011;7545;52.092;7.006;2023-05-07T04:13:01;13.93;;;11.57;;
14907;SDS011;7545;52.092;7.006;2023-05-07T04:15:27;15.93;;;11.98;;
14907;SDS011;7545;52.092;7.006;2023-05-07T04:17:52;14.52;;;11.30;;
14907;SDS011;7545;52.092;7.006;2023-05-07T04:20:18;15.85;;;12.50;;
14907;SDS011;7545;52.092;7.006;2023-05-07T04:22:44;16.73;;;11.30;;
14907;SDS011;7545;52.092;7.006;2023-05-07T04:25:10;12.50;;;11.02;;
14907;SDS011;7545;52.092;7.006;2023-05-07T04:27:35;15.80;;;11.82;;
14907;SDS011;7545;52.092;7.006;2023-05-07T04:30:02;15.80;;;12.05;;
14907;SDS011;7545;52.092;7.006;2023-05-07T04:32:28;14.57;;;11.85;;
14907;SDS011;7545;52.092;7.006;2023-05-07T04:34:54;19.48;;;13.05;;
14907;SDS011;7545;52.092;7.006;2023-05-07T04:37:21;16.92;;;12.30;;
14907;SDS011;7545;52.092;7.006;2023-05-07T04:39:47;13.75;;;11.27;;
14907;SDS011;7545;52.092;7.006;2023-05-07T04:42:16;15.38;;;12.65;;
14907;SDS011;7545;52.092;7.006;2023-05-07T04:44:42;18.17;;;12.65;;
14907;SDS011;7545;52.092;7.006;2023-05-07T04:47:08;16.83;;;12.02;;
14907;SDS011;7545;52.092;7.006;2023-05-07T04:49:34;18.92;;;14.73;;
14907;SDS011;7545;52.092;7.006;2023-05-07T04:52:00;16.35;;;12.70;;
14907;SDS011;7545;52.092;7.006;2023-05-07T04:54:26;15.43;;;12.38;;
14907;SDS011;7545;52.092;7.006;2023-05-07T04:56:51;14.80;;;12.45;;
14907;SDS011;7545;52.092;7.006;2023-05-07T04:59:17;15.55;;;12.75;;
14907;SDS011;7545;52.092;7.006;2023-05-07T05:01:43;18.20;;;13.15;;
14907;SDS011;7545;52.092;7.006;2023-05-07T05:04:08;16.60;;;12.88;;
14907;SDS011;7545;52.092;7.006;2023-05-07T05:06:35;15.32;;;12.82;;
14907;SDS011;7545;52.092;7.006;2023-05-07T05:09:00;14.90;;;11.93;;
14907;SDS011;7545;52.092;7.006;2023-05-07T05:11:26;15.40;;;12.80;;
14907;SDS011;7545;52.092;7.006;2023-05-07T05:13:52;15.48;;;11.95;;
14907;SDS011;7545;52.092;7.006;2023-05-07T05:16:17;15.77;;;13.32;;
14907;SDS011;7545;52.092;7.006;2023-05-07T05:18:43;15.57;;;13.02;;
14907;SDS011;7545;52.092;7.006;2023-05-07T05:21:08;16.40;;;12.25;;
14907;SDS011;7545;52.092;7.006;2023-05-07T05:23:34;17.05;;;12.20;;
14907;SDS011;7545;52.092;7.006;2023-05-07T05:26:00;15.40;;;13.60;;
14907;SDS011;7545;52.092;7.006;2023-05-07T05:28:25;16.70;;;13.10;;
14907;SDS011;7545;52.092;7.006;2023-05-07T05:30:52;14.77;;;11.73;;
14907;SDS011;7545;52.092;7.006;2023-05-07T05:33:18;19.13;;;14.32;;
14907;SDS011;7545;52.092;7.006;2023-05-07T05:35:43;20.67;;;12.63;;
14907;SDS011;7545;52.092;7.006;2023-05-07T05:38:09;16.30;;;13.25;;
14907;SDS011;7545;52.092;7.006;2023-05-07T05:40:35;18.88;;;13.40;;
14907;SDS011;7545;52.092;7.006;2023-05-07T05:43:01;18.77;;;12.85;;
14907;SDS011;7545;52.092;7.006;2023-05-07T05:45:26;20.88;;;13.07;;
14907;SDS011;7545;52.092;7.006;2023-05-07T05:47:52;16.88;;;12.65;;
14907;SDS011;7545;52.092;7.006;2023-05-07T05:50:17;16.10;;;12.93;;
14907;SDS011;7545;52.092;7.006;2023-05-07T05:52:43;14.95;;;12.82;;
14907;SDS011;7545;52.092;7.006;2023-05-07T05:55:09;15.80;;;13.02;;
14907;SDS011;7545;52.092;7.006;2023-05-07T05:57:34;16.13;;;12.98;;
14907;SDS011;7545;52.092;7.006;2023-05-07T06:00:01;15.27;;;12.07;;
14907;SDS011;7545;52.092;7.006;2023-05-07T06:02:27;14.48;;;12.77;;
14907;SDS011;7545;52.092;7.006;2023-05-07T06:04:53;14.05;;;12.55;;
14907;SDS011;7545;52.092;7.006;2023-05-07T06:07:19;14.13;;;12.38;;
14907;SDS011;7545;52.092;7.006;2023-05-07T06:09:44;14.70;;;12.30;;
14907;SDS011;7545;52.092;7.006;2023-05-07T06:12:10;18.60;;;13.07;;
14907;SDS011;7545;52.092;7.006;2023-05-07T06:14:36;15.77;;;12.45;;
14907;SDS011;7545;52.092;7.006;2023-05-07T06:17:02;16.13;;;12.95;;
14907;SDS011;7545;52.092;7.006;2023-05-07T06:19:27;17.13;;;13.80;;
14907;SDS011;7545;52.092;7.006;2023-05-07T06:21:53;18.23;;;15.00;;
14907;SDS011;7545;52.092;7.006;2023-05-07T06:24:19;17.33;;;12.77;;
14907;SDS011;7545;52.092;7.006;2023-05-07T06:26:44;16.77;;;12.70;;
14907;SDS011;7545;52.092;7.006;2023-05-07T06:29:10;15.30;;;11.85;;
14907;SDS011;7545;52.092;7.006;2023-05-07T06:31:36;18.00;;;13.02;;
14907;SDS011;7545;52.092;7.006;2023-05-07T06:34:01;17.52;;;13.20;;
14907;SDS011;7545;52.092;7.006;2023-05-07T06:36:27;16.40;;;13.63;;
14907;SDS011;7545;52.092;7.006;2023-05-07T06:38:53;16.05;;;12.70;;
14907;SDS011;7545;52.092;7.006;2023-05-07T06:41:19;16.42;;;12.68;;
14907;SDS011;7545;52.092;7.006;2023-05-07T06:43:45;22.23;;;13.20;;
14907;SDS011;7545;52.092;7.006;2023-05-07T06:46:11;16.10;;;13.18;;
14907;SDS011;7545;52.092;7.006;2023-05-07T06:48:36;14.00;;;12.48;;
14907;SDS011;7545;52.092;7.006;2023-05-07T06:51:02;19.52;;;13.27;;
14907;SDS011;7545;52.092;7.006;2023-05-07T06:53:28;15.90;;;13.20;;
14907;SDS011;7545;52.092;7.006;2023-05-07T06:55:55;14.90;;;11.77;;
14907;SDS011;7545;52.092;7.006;2023-05-07T06:58:21;15.52;;;12.15;;
14907;SDS011;7545;52.092;7.006;2023-05-07T07:00:47;16.40;;;12.77;;
14907;SDS011;7545;52.092;7.006;2023-05-07T07:03:12;17.80;;;12.60;;
14907;SDS011;7545;52.092;7.006;2023-05-07T07:05:39;14.98;;;11.73;;
14907;SDS011;7545;52.092;7.006;2023-05-07T07:08:06;19.70;;;13.75;;
14907;SDS011;7545;52.092;7.006;2023-05-07T07:10:31;18.13;;;12.82;;
14907;SDS011;7545;52.092;7.006;2023-05-07T07:12:57;16.45;;;12.73;;
14907;SDS011;7545;52.092;7.006;2023-05-07T07:15:22;15.73;;;12.35;;
14907;SDS011;7545;52.092;7.006;2023-05-07T07:17:49;15.52;;;11.88;;
14907;SDS011;7545;52.092;7.006;2023-05-07T07:20:15;15.57;;;13.00;;
14907;SDS011;7545;52.092;7.006;2023-05-07T07:22:41;16.90;;;13.07;;
14907;SDS011;7545;52.092;7.006;2023-05-07T07:25:07;16.17;;;12.23;;
14907;SDS011;7545;52.092;7.006;2023-05-07T07:27:33;17.25;;;12.52;;
14907;SDS011;7545;52.092;7.006;2023-05-07T07:29:58;14.98;;;12.02;;
14907;SDS011;7545;52.092;7.006;2023-05-07T07:32:24;14.20;;;12.05;;
14907;SDS011;7545;52.092;7.006;2023-05-07T07:34:50;13.73;;;11.68;;
14907;SDS011;7545;52.092;7.006;2023-05-07T07:37:16;18.60;;;13.38;;
14907;SDS011;7545;52.092;7.006;2023-05-07T07:39:41;16.45;;;11.23;;
14907;SDS011;7545;52.092;7.006;2023-05-07T07:42:07;17.25;;;11.65;;
14907;SDS011;7545;52.092;7.006;2023-05-07T07:44:33;15.77;;;12.30;;
14907;SDS011;7545;52.092;7.006;2023-05-07T07:46:58;16.90;;;12.02;;
14907;SDS011;7545;52.092;7.006;2023-05-07T07:49:24;16.77;;;12.40;;
14907;SDS011;7545;52.092;7.006;2023-05-07T07:51:49;16.00;;;12.68;;
14907;SDS011;7545;52.092;7.006;2023-05-07T07:54:16;13.73;;;11.05;;
14907;SDS011;7545;52.092;7.006;2023-05-07T07:56:41;13.98;;;12.13;;
14907;SDS011;7545;52.092;7.006;2023-05-07T07:59:07;16.35;;;12.15;;
14907;SDS011;7545;52.092;7.006;2023-05-07T08:01:32;16.10;;;11.73;;
14907;SDS011;7545;52.092;7.006;2023-05-07T08:03:58;16.13;;;12.30;;
14907;SDS011;7545;52.092;7.006;2023-05-07T08:06:24;12.45;;;11.10;;
14907;SDS011;7545;52.092;7.006;2023-05-07T08:08:52;15.68;;;12.13;;
14907;SDS011;7545;52.092;7.006;2023-05-07T08:11:18;14.98;;;11.50;;
14907;SDS011;7545;52.092;7.006;2023-05-07T08:13:43;18.58;;;10.95;;
14907;SDS011;7545;52.092;7.006;2023-05-07T08:16:10;15.63;;;11.82;;
14907;SDS011;7545;52.092;7.006;2023-05-07T08:18:36;17.17;;;12.57;;
14907;SDS011;7545;52.092;7.006;2023-05-07T08:21:01;14.00;;;11.93;;
14907;SDS011;7545;52.092;7.006;2023-05-07T08:23:27;15.43;;;12.15;;
14907;SDS011;7545;52.092;7.006;2023-05-07T08:25:53;15.05;;;12.00;;
14907;SDS011;7545;52.092;7.006;2023-05-07T08:28:18;14.40;;;11.77;;
14907;SDS011;7545;52.092;7.006;2023-05-07T08:30:46;14.55;;;11.38;;
14907;SDS011;7545;52.092;7.006;2023-05-07T08:33:11;18.05;;;12.32;;
14907;SDS011;7545;52.092;7.006;2023-05-07T08:35:37;17.30;;;12.65;;
14907;SDS011;7545;52.092;7.006;2023-05-07T08:38:03;20.38;;;12.07;;
14907;SDS011;7545;52.092;7.006;2023-05-07T08:40:28;15.55;;;11.52;;
14907;SDS011;7545;52.092;7.006;2023-05-07T08:42:56;14.35;;;11.65;;
14907;SDS011;7545;52.092;7.006;2023-05-07T08:45:23;13.88;;;12.13;;
14907;SDS011;7545;52.092;7.006;2023-05-07T08:47:52;20.00;;;12.05;;
14907;SDS011;7545;52.092;7.006;2023-05-07T08:50:23;14.77;;;12.23;;
14907;SDS011;7545;52.092;7.006;2023-05-07T08:52:49;15.38;;;11.35;;
14907;SDS011;7545;52.092;7.006;2023-05-07T08:55:15;14.15;;;11.35;;
14907;SDS011;7545;52.092;7.006;2023-05-07T08:57:41;14.35;;;11.90;;
14907;SDS011;7545;52.092;7.006;2023-05-07T09:00:07;16.17;;;12.40;;
14907;SDS011;7545;52.092;7.006;2023-05-07T09:02:33;13.75;;;11.60;;
14907;SDS011;7545;52.092;7.006;2023-05-07T09:05:02;13.02;;;10.70;;
14907;SDS011;7545;52.092;7.006;2023-05-07T09:07:28;15.40;;;12.50;;
14907;SDS011;7545;52.092;7.006;2023-05-07T09:09:55;14.45;;;12.35;;
14907;SDS011;7545;52.092;7.006;2023-05-07T09:12:22;15.55;;;12.05;;
14907;SDS011;7545;52.092;7.006;2023-05-07T09:14:47;13.13;;;11.52;;
14907;SDS011;7545;52.092;7.006;2023-05-07T09:17:15;14.75;;;11.48;;
14907;SDS011;7545;52.092;7.006;2023-05-07T09:19:41;15.02;;;12.38;;
14907;SDS011;7545;52.092;7.006;2023-05-07T09:22:08;15.30;;;11.95;;
14907;SDS011;7545;52.092;7.006;2023-05-07T09:24:34;16.85;;;11.90;;
14907;SDS011;7545;52.092;7.006;2023-05-07T09:27:02;16.77;;;12.38;;
14907;SDS011;7545;52.092;7.006;2023-05-07T09:29:28;15.18;;;11.90;;
14907;SDS011;7545;52.092;7.006;2023-05-07T09:31:55;14.93;;;12.63;;
14907;SDS011;7545;52.092;7.006;2023-05-07T09:34:21;13.25;;;10.65;;
14907;SDS011;7545;52.092;7.006;2023-05-07T09:36:47;12.75;;;11.45;;
14907;SDS011;7545;52.092;7.006;2023-05-07T09:39:13;12.88;;;10.65;;
14907;SDS011;7545;52.092;7.006;2023-05-07T09:41:45;15.52;;;12.13;;
14907;SDS011;7545;52.092;7.006;2023-05-07T09:44:12;14.75;;;10.43;;
14907;SDS011;7545;52.092;7.006;2023-05-07T09:46:43;12.45;;;10.93;;
14907;SDS011;7545;52.092;7.006;2023-05-07T09:49:20;11.30;;;9.65;;
14907;SDS011;7545;52.092;7.006;2023-05-07T09:51:48;13.70;;;10.65;;
14907;SDS011;7545;52.092;7.006;2023-05-07T09:54:15;13.55;;;11.20;;
14907;SDS011;7545;52.092;7.006;2023-05-07T09:56:42;11.25;;;9.98;;
14907;SDS011;7545;52.092;7.006;2023-05-07T09:59:10;13.52;;;10.25;;
14907;SDS011;7545;52.092;7.006;2023-05-07T10:01:39;13.35;;;9.93;;
14907;SDS011;7545;52.092;7.006;2023-05-07T10:04:07;12.98;;;10.50;;
14907;SDS011;7545;52.092;7.006;2023-05-07T10:06:34;12.63;;;11.05;;
14907;SDS011;7545;52.092;7.006;2023-05-07T10:09:00;11.27;;;9.88;;
14907;SDS011;7545;52.092;7.006;2023-05-07T10:11:26;10.68;;;9.10;;
14907;SDS011;7545;52.092;7.006;2023-05-07T10:13:52;10.40;;;8.85;;
14907;SDS011;7545;52.092;7.006;2023-05-07T10:16:18;14.73;;;9.88;;
14907;SDS011;7545;52.092;7.006;2023-05-07T10:18:45;14.18;;;8.32;;
14907;SDS011;7545;52.092;7.006;2023-05-07T10:21:18;11.30;;;9.52;;
14907;SDS011;7545;52.092;7.006;2023-05-07T10:23:46;11.98;;;9.65;;
14907;SDS011;7545;52.092;7.006;2023-05-07T10:26:15;8.82;;;7.93;;
14907;SDS011;7545;52.092;7.006;2023-05-07T10:28:43;11.27;;;8.27;;
14907;SDS011;7545;52.092;7.006;2023-05-07T10:33:59;9.30;;;8.00;;
14907;SDS011;7545;52.092;7.006;2023-05-07T10:36:27;10.82;;;9.57;;
14907;SDS011;7545;52.092;7.006;2023-05-07T10:38:53;14.45;;;8.57;;
14907;SDS011;7545;52.092;7.006;2023-05-07T10:41:20;9.98;;;8.20;;
14907;SDS011;7545;52.092;7.006;2023-05-07T10:43:46;9.70;;;8.23;;
14907;SDS011;7545;52.092;7.006;2023-05-07T10:46:14;9.75;;;8.60;;
14907;SDS011;7545;52.092;7.006;2023-05-07T10:51:33;12.15;;;9.30;;
14907;SDS011;7545;52.092;7.006;2023-05-07T10:56:35;11.20;;;7.72;;
14907;SDS011;7545;52.092;7.006;2023-05-07T11:01:49;10.15;;;8.75;;
14907;SDS011;7545;52.092;7.006;2023-05-07T11:04:16;8.88;;;7.20;;
14907;SDS011;7545;52.092;7.006;2023-05-07T11:07:16;8.82;;;7.57;;
14907;SDS011;7545;52.092;7.006;2023-05-07T11:15:02;9.48;;;7.35;;
14907;SDS011;7545;52.092;7.006;2023-05-07T11:17:35;9.35;;;8.35;;
14907;SDS011;7545;52.092;7.006;2023-05-07T11:20:17;9.38;;;7.95;;
14907;SDS011;7545;52.092;7.006;2023-05-07T11:22:43;7.07;;;6.28;;
14907;SDS011;7545;52.092;7.006;2023-05-07T11:25:09;10.30;;;8.10;;
14907;SDS011;7545;52.092;7.006;2023-05-07T11:27:34;9.88;;;6.95;;
14907;SDS011;7545;52.092;7.006;2023-05-07T11:30:00;11.63;;;7.45;;
14907;SDS011;7545;52.092;7.006;2023-05-07T11:32:27;8.85;;;6.68;;
14907;SDS011;7545;52.092;7.006;2023-05-07T11:34:54;7.85;;;6.25;;
14907;SDS011;7545;52.092;7.006;2023-05-07T11:37:21;8.10;;;6.28;;
14907;SDS011;7545;52.092;7.006;2023-05-07T11:39:48;10.60;;;7.35;;
14907;SDS011;7545;52.092;7.006;2023-05-07T11:44:54;8.05;;;6.15;;
14907;SDS011;7545;52.092;7.006;2023-05-07T11:47:20;8.63;;;6.60;;
14907;SDS011;7545;52.092;7.006;2023-05-07T11:49:50;9.15;;;7.25;;
14907;SDS011;7545;52.092;7.006;2023-05-07T11:52:17;9.48;;;7.93;;
14907;SDS011;7545;52.092;7.006;2023-05-07T11:54:57;10.95;;;9.02;;
14907;SDS011;7545;52.092;7.006;2023-05-07T11:57:24;9.85;;;7.20;;
14907;SDS011;7545;52.092;7.006;2023-05-07T11:59:57;9.00;;;7.90;;
14907;SDS011;7545;52.092;7.006;2023-05-07T12:02:24;9.57;;;7.22;;
14907;SDS011;7545;52.092;7.006;2023-05-07T12:04:51;8.70;;;7.15;;
14907;SDS011;7545;52.092;7.006;2023-05-07T12:07:17;8.55;;;6.35;;
14907;SDS011;7545;52.092;7.006;2023-05-07T12:09:43;8.95;;;6.90;;
14907;SDS011;7545;52.092;7.006;2023-05-07T12:12:10;9.07;;;7.20;;
14907;SDS011;7545;52.092;7.006;2023-05-07T12:14:40;8.25;;;6.82;;
14907;SDS011;7545;52.092;7.006;2023-05-07T12:17:07;8.00;;;7.15;;
14907;SDS011;7545;52.092;7.006;2023-05-07T12:19:33;9.20;;;7.20;;
14907;SDS011;7545;52.092;7.006;2023-05-07T12:22:01;8.57;;;6.25;;
14907;SDS011;7545;52.092;7.006;2023-05-07T12:24:46;8.20;;;6.50;;
14907;SDS011;7545;52.092;7.006;2023-05-07T12:27:13;9.40;;;6.38;;
14907;SDS011;7545;52.092;7.006;2023-05-07T12:29:39;5.88;;;5.00;;
14907;SDS011;7545;52.092;7.006;2023-05-07T12:32:12;5.90;;;4.85;;
14907;SDS011;7545;52.092;7.006;2023-05-07T12:34:41;5.10;;;4.28;;
14907;SDS011;7545;52.092;7.006;2023-05-07T12:37:07;5.43;;;4.20;;
14907;SDS011;7545;52.092;7.006;2023-05-07T12:39:33;7.47;;;5.80;;
14907;SDS011;7545;52.092;7.006;2023-05-07T12:41:59;7.10;;;6.30;;
14907;SDS011;7545;52.092;7.006;2023-05-07T12:44:26;8.50;;;6.20;;
14907;SDS011;7545;52.092;7.006;2023-05-07T12:46:56;9.02;;;7.35;;
14907;SDS011;7545;52.092;7.006;2023-05-07T12:49:22;7.45;;;6.30;;
14907;SDS011;7545;52.092;7.006;2023-05-07T12:51:49;7.15;;;5.97;;
14907;SDS011;7545;52.092;7.006;2023-05-07T12:54:48;5.95;;;5.25;;
14907;SDS011;7545;52.092;7.006;2023-05-07T12:57:09;6.80;;;5.13;;
14907;SDS011;7545;52.092;7.006;2023-05-07T12:59:39;6.90;;;5.25;;
14907;SDS011;7545;52.092;7.006;2023-05-07T13:02:05;6.55;;;5.90;;
14907;SDS011;7545;52.092;7.006;2023-05-07T13:04:32;7.88;;;6.15;;
14907;SDS011;7545;52.092;7.006;2023-05-07T13:06:58;7.88;;;5.65;;
14907;SDS011;7545;52.092;7.006;2023-05-07T13:09:24;8.43;;;5.78;;
14907;SDS011;7545;52.092;7.006;2023-05-07T13:11:50;6.43;;;4.20;;
14907;SDS011;7545;52.092;7.006;2023-05-07T13:14:15;7.35;;;4.90;;
14907;SDS011;7545;52.092;7.006;2023-05-07T13:16:41;8.32;;;4.85;;
14907;SDS011;7545;52.092;7.006;2023-05-07T13:19:07;6.07;;;5.32;;
14907;SDS011;7545;52.092;7.006;2023-05-07T13:21:33;5.28;;;4.65;;
14907;SDS011;7545;52.092;7.006;2023-05-07T13:23:58;4.00;;;2.97;;
14907;SDS011;7545;52.092;7.006;2023-05-07T13:26:24;5.57;;;3.97;;
14907;SDS011;7545;52.092;7.006;2023-05-07T13:28:50;5.50;;;5.00;;
14907;SDS011;7545;52.092;7.006;2023-05-07T13:31:17;8.30;;;5.15;;
14907;SDS011;7545;52.092;7.006;2023-05-07T13:33:42;7.38;;;6.47;;
14907;SDS011;7545;52.092;7.006;2023-05-07T13:36:08;6.65;;;6.05;;
14907;SDS011;7545;52.092;7.006;2023-05-07T13:38:34;7.65;;;4.57;;
14907;SDS011;7545;52.092;7.006;2023-05-07T13:41:00;8.93;;;4.70;;
14907;SDS011;7545;52.092;7.006;2023-05-07T13:43:25;7.07;;;4.70;;
14907;SDS011;7545;52.092;7.006;2023-05-07T13:45:51;3.92;;;3.55;;
14907;SDS011;7545;52.092;7.006;2023-05-07T13:48:17;4.30;;;3.42;;
14907;SDS011;7545;52.092;7.006;2023-05-07T13:50:42;5.13;;;3.72;;
14907;SDS011;7545;52.092;7.006;2023-05-07T13:53:08;6.65;;;4.50;;
14907;SDS011;7545;52.092;7.006;2023-05-07T13:55:34;4.75;;;3.63;;
14907;SDS011;7545;52.092;7.006;2023-05-07T13:58:00;5.28;;;4.78;;
14907;SDS011;7545;52.092;7.006;2023-05-07T14:00:27;5.88;;;4.65;;
14907;SDS011;7545;52.092;7.006;2023-05-07T14:02:53;7.45;;;5.13;;
14907;SDS011;7545;52.092;7.006;2023-05-07T14:05:20;6.20;;;5.15;;
14907;SDS011;7545;52.092;7.006;2023-05-07T14:07:45;5.97;;;5.05;;
14907;SDS011;7545;52.092;7.006;2023-05-07T14:10:12;6.55;;;4.55;;
14907;SDS011;7545;52.092;7.006;2023-05-07T14:12:38;5.68;;;4.20;;
14907;SDS011;7545;52.092;7.006;2023-05-07T14:15:03;4.15;;;3.75;;
14907;SDS011;7545;52.092;7.006;2023-05-07T14:17:29;7.95;;;4.47;;
14907;SDS011;7545;52.092;7.006;2023-05-07T14:19:55;7.15;;;4.40;;
14907;SDS011;7545;52.092;7.006;2023-05-07T14:22:21;5.20;;;4.63;;
14907;SDS011;7545;52.092;7.006;2023-05-07T14:24:47;4.47;;;3.78;;
14907;SDS011;7545;52.092;7.006;2023-05-07T14:27:13;3.75;;;3.20;;
14907;SDS011;7545;52.092;7.006;2023-05-07T14:29:39;5.80;;;3.75;;
14907;SDS011;7545;52.092;7.006;2023-05-07T14:32:06;4.22;;;3.33;;
14907;SDS011;7545;52.092;7.006;2023-05-07T14:34:31;5.00;;;3.33;;
14907;SDS011;7545;52.092;7.006;2023-05-07T14:36:57;5.38;;;3.38;;
14907;SDS011;7545;52.092;7.006;2023-05-07T14:39:23;6.43;;;3.75;;
14907;SDS011;7545;52.092;7.006;2023-05-07T14:41:49;3.75;;;3.10;;
14907;SDS011;7545;52.092;7.006;2023-05-07T14:44:14;6.25;;;3.17;;
14907;SDS011;7545;52.092;7.006;2023-05-07T14:46:40;4.38;;;3.58;;
14907;SDS011;7545;52.092;7.006;2023-05-07T14:49:06;3.80;;;3.40;;
14907;SDS011;7545;52.092;7.006;2023-05-07T14:51:32;5.30;;;4.13;;
14907;SDS011;7545;52.092;7.006;2023-05-07T14:53:58;3.95;;;3.25;;
14907;SDS011;7545;52.092;7.006;2023-05-07T14:56:23;5.68;;;3.95;;
14907;SDS011;7545;52.092;7.006;2023-05-07T14:58:49;5.35;;;3.75;;
14907;SDS011;7545;52.092;7.006;2023-05-07T15:01:16;4.30;;;3.88;;